Time;durP1;ratioP1;P1;durP2;ratioP2;P2;SDS_P1;SDS_P2;PMS_P1;PMS_P2;Temp;Humidity;BMP_temperature;BMP_pressure;BME280_temperature;BME280_humidity;BME280_pressure;Samples;Min_cycle;Max_cycle;Signal;HPM_P1;HPM_P2
2023/03/17 00:00:40;;;;;;;6.40;4.10;;;;;;;5.95;100.00;100770.94;4906461;29;20051;-77
2023/03/17 00:03:06;;;;;;;8.20;4.05;;;;;;;5.98;100.00;100768.25;4926271;28;20511;-76
2023/03/17 00:05:35;;;;;;;5.82;3.70;;;;;;;5.98;100.00;100749.84;4911510;28;20050;-77
2023/03/17 00:08:10;;;;;;;6.97;3.55;;;;;;;6.00;100.00;100747.19;4909828;28;20044;-76
2023/03/17 00:10:36;;;;;;;6.60;4.10;;;;;;;6.01;100.00;100748.91;4910761;29;20074;-77
2023/03/17 00:13:02;;;;;;;5.90;3.75;;;;;;;6.01;100.00;100742.78;4911796;29;20043;-77
2023/03/17 00:15:28;;;;;;;6.85;4.00;;;;;;;5.98;100.00;100749.84;4912523;29;20047;-76
2023/03/17 00:17:55;;;;;;;5.20;3.83;;;;;;;5.96;100.00;100751.66;4912249;29;20055;-76
2023/03/17 00:20:27;;;;;;;8.20;4.28;;;;;;;5.97;100.00;100753.38;4893830;29;20062;-77
2023/03/17 00:22:58;;;;;;;6.35;3.85;;;;;;;5.95;100.00;100741.19;4893404;29;20047;-77
2023/03/17 00:25:26;;;;;;;5.13;3.65;;;;;;;5.94;100.00;100742.09;4907220;29;20054;-77
2023/03/17 00:27:52;;;;;;;6.60;3.90;;;;;;;5.94;100.00;100736.84;4884731;29;20558;-77
2023/03/17 00:30:18;;;;;;;6.15;3.97;;;;;;;5.92;100.00;100739.50;4911273;29;20102;-77
2023/03/17 00:32:45;;;;;;;5.90;3.40;;;;;;;5.92;100.00;100743.88;4893021;29;20799;-77
2023/03/17 00:35:16;;;;;;;5.25;3.72;;;;;;;5.92;100.00;100749.13;4906378;28;20044;-76
2023/03/17 00:37:42;;;;;;;6.60;3.83;;;;;;;5.92;100.00;100743.88;4905362;28;20185;-77
2023/03/17 00:40:17;;;;;;;7.18;4.13;;;;;;;5.92;100.00;100743.88;4908464;29;20036;-76
2023/03/17 00:42:43;;;;;;;6.50;3.67;;;;;;;5.93;100.00;100740.34;4907706;28;20043;-77
2023/03/17 00:45:10;;;;;;;5.00;3.70;;;;;;;5.93;100.00;100732.47;4911697;29;20814;-76
2023/03/17 00:47:36;;;;;;;6.82;3.53;;;;;;;5.93;100.00;100730.72;4912208;29;20547;-76
2023/03/17 00:50:03;;;;;;;7.13;3.45;;;;;;;5.93;100.00;100725.44;4894921;29;20055;-76
2023/03/17 00:52:29;;;;;;;5.82;3.53;;;;;;;5.95;100.00;100730.66;4923223;28;20496;-75
2023/03/17 00:54:55;;;;;;;6.30;3.15;;;;;;;5.94;100.00;100719.28;4910194;28;20050;-77
2023/03/17 00:57:21;;;;;;;6.45;3.25;;;;;;;5.96;100.00;100712.25;4892527;29;20044;-77
2023/03/17 00:59:47;;;;;;;8.00;3.97;;;;;;;5.96;100.00;100708.75;4909386;28;20044;-77
2023/03/17 01:02:13;;;;;;;4.57;3.63;;;;;;;5.97;100.00;100706.06;4889567;29;20058;-77
2023/03/17 01:04:40;;;;;;;7.53;4.18;;;;;;;5.97;100.00;100702.56;4890008;29;20170;-78
2023/03/17 01:07:06;;;;;;;7.40;4.25;;;;;;;5.96;100.00;100698.22;4902587;28;20123;-77
2023/03/17 01:09:32;;;;;;;5.25;4.03;;;;;;;5.98;100.00;100710.41;4886081;29;20575;-78
2023/03/17 01:11:59;;;;;;;6.00;4.10;;;;;;;5.99;100.00;100703.38;4901633;29;20035;-75
2023/03/17 01:14:25;;;;;;;6.30;4.00;;;;;;;5.98;100.00;100705.16;4885845;29;20055;-76
2023/03/17 01:16:51;;;;;;;6.30;4.10;;;;;;;5.99;100.00;100698.13;4897909;28;20036;-76
2023/03/17 01:19:18;;;;;;;6.60;3.63;;;;;;;5.99;100.00;100698.13;4903036;28;20052;-76
2023/03/17 01:21:45;;;;;;;5.57;3.65;;;;;;;5.99;100.00;100684.97;4884601;29;21609;-76
2023/03/17 01:24:11;;;;;;;5.78;3.80;;;;;;;5.98;100.00;100692.03;4902653;29;20471;-75
2023/03/17 01:26:37;;;;;;;5.13;3.72;;;;;;;6.00;100.00;100694.63;4904475;29;20126;-76
2023/03/17 01:29:05;;;;;;;5.65;3.72;;;;;;;6.02;100.00;100679.69;4901763;29;20064;-76
2023/03/17 01:31:30;;;;;;;8.88;4.25;;;;;;;6.02;100.00;100687.56;4900152;29;20483;-76
2023/03/17 01:33:56;;;;;;;5.35;3.55;;;;;;;6.04;100.00;100691.00;4901387;29;20047;-76
2023/03/17 01:36:22;;;;;;;6.07;4.05;;;;;;;6.03;100.00;100683.16;4889010;29;20523;-76
2023/03/17 01:38:49;;;;;;;5.72;3.90;;;;;;;6.04;100.00;100679.66;4901102;29;20040;-75
2023/03/17 01:41:16;;;;;;;6.50;4.13;;;;;;;6.03;100.00;100678.78;4904210;29;20056;-75
2023/03/17 01:43:44;;;;;;;5.10;3.50;;;;;;;6.03;100.00;100677.91;4885536;29;20047;-76
2023/03/17 01:46:10;;;;;;;5.10;3.33;;;;;;;6.02;100.00;100668.28;4882786;29;20047;-76
2023/03/17 01:48:56;;;;;;;5.70;3.40;;;;;;;6.01;100.00;100656.91;4906398;29;20146;-75
2023/03/17 01:51:45;;;;;;;6.35;3.67;;;;;;;6.00;100.00;100660.44;4896861;29;20608;-76
2023/03/17 01:54:35;;;;;;;4.85;3.55;;;;;;;5.96;100.00;100656.19;4902750;28;20055;-76
2023/03/17 01:57:09;;;;;;;5.57;3.42;;;;;;;5.95;100.00;100660.56;4902597;29;20097;-77
2023/03/17 01:59:38;;;;;;;6.43;3.60;;;;;;;5.93;100.00;100662.38;4868462;29;20048;-77
2023/03/17 02:02:06;;;;;;;4.38;3.13;;;;;;;5.93;100.00;100672.00;4889672;29;20044;-77
2023/03/17 02:04:33;;;;;;;5.90;3.38;;;;;;;5.93;100.00;100667.63;4889021;29;20047;-77
2023/03/17 02:06:59;;;;;;;4.75;2.90;;;;;;;5.90;100.00;100656.34;4881158;29;20048;-77
2023/03/17 02:09:26;;;;;;;7.50;2.90;;;;;;;5.94;100.00;100673.75;4869840;29;20146;-77
2023/03/17 02:11:52;;;;;;;4.63;2.97;;;;;;;5.94;100.00;100671.13;4883031;29;20051;-77
2023/03/17 02:14:19;;;;;;;4.50;3.20;;;;;;;5.93;100.00;100672.88;4883212;29;20508;-77
2023/03/17 02:16:44;;;;;;;3.97;2.88;;;;;;;5.93;100.00;100672.00;4857994;29;20057;-77
2023/03/17 02:19:10;;;;;;;5.15;2.95;;;;;;;5.92;100.00;100659.78;4882136;29;20488;-77
2023/03/17 02:22:04;;;;;;;3.72;2.88;;;;;;;5.90;100.00;100651.09;4888116;29;20050;-77
2023/03/17 02:24:42;;;;;;;3.85;2.72;;;;;;;5.90;100.00;100654.59;4885573;29;21558;-76
2023/03/17 02:27:20;;;;;;;4.60;3.10;;;;;;;5.89;100.00;100655.47;4887681;29;20090;-77
2023/03/17 02:29:45;;;;;;;4.25;2.50;;;;;;;5.87;100.00;100653.84;4867545;29;20052;-76
2023/03/17 02:32:13;;;;;;;6.63;2.85;;;;;;;5.88;100.00;100660.81;4886064;29;20054;-77
2023/03/17 02:34:39;;;;;;;4.60;3.20;;;;;;;5.87;100.00;100661.72;4886024;29;20056;-76
2023/03/17 02:37:06;;;;;;;5.35;2.97;;;;;;;5.85;100.00;100657.34;4887463;29;20475;-77
2023/03/17 02:39:32;;;;;;;4.90;3.30;;;;;;;5.84;100.00;100652.16;4875325;29;20410;-77
2023/03/17 02:41:58;;;;;;;5.53;3.33;;;;;;;5.83;100.00;100653.91;4903014;29;20606;-76
2023/03/17 02:44:24;;;;;;;5.20;3.30;;;;;;;5.83;100.00;100656.53;4888511;29;20048;-76
2023/03/17 02:46:49;;;;;;;4.95;2.95;;;;;;;5.81;100.00;100655.72;4904699;29;20122;-76
2023/03/17 02:49:16;;;;;;;6.32;3.10;;;;;;;5.78;100.00;100647.06;4893423;29;20229;-76
2023/03/17 02:51:41;;;;;;;6.35;3.05;;;;;;;5.78;100.00;100647.06;4890993;29;20511;-76
2023/03/17 02:54:07;;;;;;;4.68;2.97;;;;;;;5.77;100.00;100650.59;4891469;29;20040;-76
2023/03/17 02:56:33;;;;;;;6.07;3.17;;;;;;;5.74;100.00;100646.28;4887556;29;20040;-76
2023/03/17 02:58:59;;;;;;;4.07;3.00;;;;;;;5.72;100.00;100642.81;4907249;28;20056;-76
2023/03/17 03:01:25;;;;;;;3.83;2.72;;;;;;;5.70;100.00;100652.53;4920660;28;20591;-76
2023/03/17 03:03:51;;;;;;;6.78;2.95;;;;;;;5.69;100.00;100645.56;4912507;29;20059;-77
2023/03/17 03:06:17;;;;;;;3.78;2.70;;;;;;;5.67;100.00;100650.00;4912733;29;20048;-77
2023/03/17 03:08:43;;;;;;;5.53;2.95;;;;;;;5.67;100.00;100634.25;4904933;29;20044;-77
2023/03/17 03:11:09;;;;;;;4.28;2.85;;;;;;;5.65;100.00;100642.16;4908660;29;20051;-77
2023/03/17 03:13:35;;;;;;;3.22;2.70;;;;;;;5.64;100.00;100640.44;4921702;28;20138;-77
2023/03/17 03:16:01;;;;;;;4.95;2.75;;;;;;;5.63;100.00;100643.97;4902927;29;20058;-76
2023/03/17 03:18:26;;;;;;;3.90;2.97;;;;;;;5.65;100.00;100641.28;4906365;29;20156;-76
2023/03/17 03:20:52;;;;;;;4.40;3.13;;;;;;;5.65;100.00;100651.78;4908629;29;20479;-77
2023/03/17 03:23:17;;;;;;;4.68;3.15;;;;;;;5.65;100.00;100641.28;4902991;29;20145;-77
2023/03/17 03:25:43;;;;;;;4.25;2.75;;;;;;;5.65;100.00;100643.91;4904363;29;20043;-76
2023/03/17 03:28:08;;;;;;;4.07;2.97;;;;;;;5.66;100.00;100648.28;4906180;29;20077;-77
2023/03/17 03:30:35;;;;;;;4.72;3.13;;;;;;;5.68;100.00;100651.72;4907042;29;20051;-77
2023/03/17 03:33:01;;;;;;;5.32;2.97;;;;;;;5.67;100.00;100639.50;4901607;29;20418;-77
2023/03/17 03:35:28;;;;;;;5.03;3.20;;;;;;;5.68;100.00;100651.72;4905992;29;20690;-78
2023/03/17 03:37:55;;;;;;;10.55;3.50;;;;;;;5.68;100.00;100655.19;4892569;29;20421;-77
2023/03/17 03:40:22;;;;;;;7.05;3.63;;;;;;;5.67;100.00;100656.09;4900969;29;20041;-77
2023/03/17 03:42:48;;;;;;;8.13;3.85;;;;;;;5.69;100.00;100656.06;4893748;29;20059;-77
2023/03/17 03:45:14;;;;;;;55.53;22.90;;;;;;;5.69;100.00;100662.19;4910831;29;20039;-77
2023/03/17 03:47:40;;;;;;;9.05;4.63;;;;;;;5.69;100.00;100649.06;4906964;29;20039;-77
2023/03/17 03:50:06;;;;;;;6.28;3.85;;;;;;;5.70;100.00;100634.13;4906124;29;20062;-77
2023/03/17 03:52:32;;;;;;;7.47;3.50;;;;;;;5.70;100.00;100626.25;4908260;29;20275;-77
2023/03/17 03:54:57;;;;;;;4.10;3.30;;;;;;;5.69;100.00;100632.41;4905942;29;20048;-77
2023/03/17 03:57:23;;;;;;;5.28;3.28;;;;;;;5.68;100.00;100631.53;4892601;29;20118;-77
2023/03/17 03:59:48;;;;;;;4.47;3.13;;;;;;;5.67;100.00;100628.97;4900603;29;20542;-77
2023/03/17 04:02:15;;;;;;;3.58;2.90;;;;;;;5.65;100.00;100630.78;4897738;29;20116;-77
2023/03/17 04:04:41;;;;;;;6.50;3.50;;;;;;;5.66;100.00;100648.28;4900707;29;20046;-77
2023/03/17 04:07:08;;;;;;;5.38;3.38;;;;;;;5.62;100.00;100633.50;4907211;29;20048;-77
2023/03/17 04:09:34;;;;;;;5.82;3.10;;;;;;;5.61;100.00;100624.75;4893213;29;20051;-77
2023/03/17 04:12:01;;;;;;;4.45;3.00;;;;;;;5.60;100.00;100627.44;4919059;28;20047;-77
2023/03/17 04:14:27;;;;;;;4.53;3.30;;;;;;;5.58;100.00;100630.94;4907512;29;20048;-78
2023/03/17 04:16:53;;;;;;;4.22;2.83;;;;;;;5.58;100.00;100637.97;4911272;29;20609;-77
2023/03/17 04:19:20;;;;;;;5.80;3.10;;;;;;;5.57;100.00;100642.34;4906490;29;20040;-77
2023/03/17 04:21:46;;;;;;;3.92;3.00;;;;;;;5.55;100.00;100635.41;4907384;29;20827;-77
2023/03/17 04:24:13;;;;;;;5.10;3.45;;;;;;;5.54;100.00;100634.56;4889618;29;20054;-77
2023/03/17 04:26:40;;;;;;;5.65;3.35;;;;;;;5.51;100.00;100633.81;4905655;29;20059;-77
2023/03/17 04:29:14;;;;;;;4.88;3.20;;;;;;;5.50;100.00;100634.72;4909153;29;20368;-77
2023/03/17 04:31:40;;;;;;;6.65;3.40;;;;;;;5.48;100.00;100626.88;4907392;29;20103;-77
2023/03/17 04:34:06;;;;;;;4.57;3.08;;;;;;;5.47;100.00;100634.78;4911637;29;20047;-77
2023/03/17 04:36:31;;;;;;;5.05;3.05;;;;;;;5.44;100.00;100647.09;4920704;28;20054;-77
2023/03/17 04:38:57;;;;;;;5.22;2.45;;;;;;;5.44;100.00;100646.22;4910314;29;20086;-78
2023/03/17 04:41:23;;;;;;;7.70;3.17;;;;;;;5.43;100.00;100645.38;4910243;29;20035;-77
2023/03/17 04:43:48;;;;;;;4.38;3.15;;;;;;;5.40;100.00;100637.56;4907857;29;20094;-77
2023/03/17 04:46:15;;;;;;;5.75;3.20;;;;;;;5.39;100.00;100641.09;4913934;29;20252;-77
2023/03/17 04:48:40;;;;;;;3.58;2.67;;;;;;;5.38;100.00;100646.38;4913179;29;20079;-77
2023/03/17 04:51:06;;;;;;;4.18;2.88;;;;;;;5.39;100.00;100650.75;4896023;29;20066;-77
2023/03/17 04:53:31;;;;;;;4.55;3.00;;;;;;;5.38;100.00;100651.63;4913340;29;20076;-77
2023/03/17 04:55:57;;;;;;;6.38;3.15;;;;;;;5.40;100.00;100640.19;4915064;29;21641;-77
2023/03/17 04:58:23;;;;;;;5.05;3.22;;;;;;;5.41;100.00;100643.69;4912306;29;20051;-77
2023/03/17 05:00:49;;;;;;;4.85;2.88;;;;;;;5.42;100.00;100640.16;4913723;29;20119;-77
2023/03/17 05:03:15;;;;;;;4.65;2.90;;;;;;;5.44;100.00;100644.47;4913681;29;20044;-77
2023/03/17 05:05:40;;;;;;;4.05;2.85;;;;;;;5.46;100.00;100636.56;4910235;29;20055;-77
2023/03/17 05:08:06;;;;;;;5.28;3.30;;;;;;;5.48;100.00;100650.50;4914119;29;20047;-77
2023/03/17 05:10:31;;;;;;;4.40;3.30;;;;;;;5.50;100.00;100647.84;4912909;29;20073;-77
2023/03/17 05:12:57;;;;;;;4.75;3.22;;;;;;;5.50;100.00;100661.81;4914334;29;20043;-77
2023/03/17 05:15:22;;;;;;;6.10;3.05;;;;;;;5.52;100.00;100652.16;4910329;29;20056;-77
2023/03/17 05:17:48;;;;;;;6.22;2.95;;;;;;;5.55;100.00;100648.56;4891821;29;20048;-77
2023/03/17 05:20:14;;;;;;;5.32;3.00;;;;;;;5.56;100.00;100642.41;4904937;28;20666;-77
2023/03/17 05:22:40;;;;;;;5.50;3.15;;;;;;;5.58;100.00;100645.84;4911632;29;20055;-77
2023/03/17 05:25:06;;;;;;;5.40;3.50;;;;;;;5.58;100.00;100636.19;4909235;29;20082;-77
2023/03/17 05:27:32;;;;;;;4.68;2.90;;;;;;;5.56;100.00;100638.00;4911449;29;20800;-78
2023/03/17 05:29:57;;;;;;;4.60;3.03;;;;;;;5.58;100.00;100633.56;4910742;29;21325;-77
2023/03/17 05:32:23;;;;;;;3.42;2.78;;;;;;;5.57;100.00;100642.34;4911030;29;20047;-77
2023/03/17 05:34:49;;;;;;;5.22;2.92;;;;;;;5.58;100.00;100643.22;4915561;29;20058;-77
2023/03/17 05:37:14;;;;;;;3.78;2.83;;;;;;;5.58;100.00;100646.69;4912283;29;20044;-77
2023/03/17 05:39:40;;;;;;;7.07;3.17;;;;;;;5.58;100.00;100651.94;4909669;29;20036;-77
2023/03/17 05:42:07;;;;;;;4.18;3.00;;;;;;;5.58;100.00;100648.47;4911640;29;20130;-77
2023/03/17 05:44:33;;;;;;;6.50;2.75;;;;;;;5.60;100.00;100651.06;4878334;29;20078;-77
2023/03/17 05:46:59;;;;;;;3.20;2.22;;;;;;;5.59;100.00;100642.31;4908819;29;20499;-77
2023/03/17 05:49:26;;;;;;;5.30;3.13;;;;;;;5.62;100.00;100634.34;4912787;29;20831;-77
2023/03/17 05:51:51;;;;;;;4.38;2.85;;;;;;;5.63;100.00;100632.59;4905969;29;20050;-75
2023/03/17 05:54:17;;;;;;;4.32;2.70;;;;;;;5.65;100.00;100642.16;4851349;29;20405;-75
2023/03/17 05:56:42;;;;;;;4.95;2.75;;;;;;;5.65;100.00;100636.91;4867945;29;20374;-76
2023/03/17 05:59:09;;;;;;;4.65;2.75;;;;;;;5.66;100.00;100638.63;4881145;29;20051;-76
2023/03/17 06:01:35;;;;;;;2.88;2.30;;;;;;;5.67;100.00;100639.50;4909880;29;20051;-76
2023/03/17 06:04:01;;;;;;;4.55;2.50;;;;;;;5.67;100.00;100645.59;4907752;29;20107;-76
2023/03/17 06:06:27;;;;;;;4.57;3.03;;;;;;;5.67;100.00;100644.75;4913803;29;20100;-76
2023/03/17 06:08:53;;;;;;;4.00;3.00;;;;;;;5.67;100.00;100645.59;4909181;29;20047;-75
2023/03/17 06:11:20;;;;;;;6.90;2.80;;;;;;;5.68;100.00;100635.97;4905382;29;20047;-76
2023/03/17 06:13:46;;;;;;;3.88;2.80;;;;;;;5.68;100.00;100642.06;4910852;29;20123;-76
2023/03/17 06:16:12;;;;;;;4.28;2.78;;;;;;;5.70;100.00;100644.66;4911145;29;20040;-76
2023/03/17 06:18:37;;;;;;;6.80;2.83;;;;;;;5.73;100.00;100638.44;4910912;29;20047;-76
2023/03/17 06:21:03;;;;;;;4.93;3.10;;;;;;;5.75;100.00;100640.13;4907905;29;20047;-77
2023/03/17 06:23:28;;;;;;;4.35;2.50;;;;;;;5.78;100.00;100637.41;4910532;29;20046;-76
2023/03/17 06:25:54;;;;;;;4.97;2.47;;;;;;;5.80;100.00;100642.63;4910807;29;20047;-76
2023/03/17 06:28:19;;;;;;;4.55;2.70;;;;;;;5.82;100.00;100653.94;4907062;29;20056;-76
2023/03/17 06:30:45;;;;;;;3.10;2.47;;;;;;;5.83;100.00;100650.44;4911029;29;20085;-77
2023/03/17 06:33:10;;;;;;;4.35;2.53;;;;;;;5.84;100.00;100637.22;4911648;29;20070;-77
2023/03/17 06:35:37;;;;;;;5.75;2.83;;;;;;;5.87;100.00;100635.44;4908067;29;20763;-77
2023/03/17 06:38:02;;;;;;;3.85;2.63;;;;;;;5.90;100.00;100643.22;4898033;29;20079;-77
2023/03/17 06:40:28;;;;;;;3.55;2.35;;;;;;;5.90;100.00;100625.69;4916640;29;20203;-77
2023/03/17 06:42:54;;;;;;;4.35;2.90;;;;;;;5.92;100.00;100613.38;4917268;29;20442;-77
2023/03/17 06:45:19;;;;;;;3.65;2.78;;;;;;;5.95;100.00;100612.41;4916023;28;20056;-77
2023/03/17 06:47:45;;;;;;;5.00;2.80;;;;;;;5.96;100.00;100606.25;4910799;29;20466;-77
2023/03/17 06:50:11;;;;;;;4.35;2.50;;;;;;;6.02;100.00;100606.09;4912936;29;20073;-77
2023/03/17 06:52:44;;;;;;;6.80;2.65;;;;;;;6.04;100.00;100601.66;4897548;29;21174;-76
2023/03/17 06:55:11;;;;;;;3.92;2.70;;;;;;;6.06;100.00;100605.06;4914008;29;20048;-77
2023/03/17 06:57:37;;;;;;;4.70;2.70;;;;;;;6.08;100.00;100610.28;4894339;29;20403;-77
2023/03/17 07:00:05;;;;;;;5.25;2.33;;;;;;;6.10;100.00;100622.50;4902431;29;20048;-75
2023/03/17 07:02:32;;;;;;;4.18;2.38;;;;;;;6.12;100.00;100640.84;4911170;29;20043;-75
2023/03/17 07:04:59;;;;;;;2.97;2.45;;;;;;;6.13;100.00;100644.31;4908855;29;20084;-75
2023/03/17 07:07:26;;;;;;;4.20;2.65;;;;;;;6.14;100.00;100632.94;4910013;29;20050;-74
2023/03/17 07:09:51;;;;;;;5.93;2.80;;;;;;;6.15;100.00;100619.72;4909048;29;20644;-75
2023/03/17 07:12:17;;;;;;;4.70;2.47;;;;;;;6.18;100.00;100608.25;4909139;29;20063;-75
2023/03/17 07:14:43;;;;;;;3.50;2.65;;;;;;;6.22;100.00;100607.25;4912752;29;20054;-74
2023/03/17 07:17:18;;;;;;;4.57;2.63;;;;;;;6.25;100.00;100600.13;4912633;29;20508;-75
2023/03/17 07:19:44;;;;;;;3.65;2.58;;;;;;;6.31;100.00;100603.50;4908419;29;20509;-75
2023/03/17 07:22:12;;;;;;;4.90;2.70;;;;;;;6.37;100.00;100608.53;4919630;28;20047;-75
2023/03/17 07:24:40;;;;;;;3.45;2.70;;;;;;;6.44;100.00;100631.13;4921488;28;21269;-75
2023/03/17 07:27:07;;;;;;;4.80;2.60;;;;;;;6.50;100.00;100625.63;4912474;29;20055;-75
2023/03/17 07:29:33;;;;;;;4.88;2.35;;;;;;;6.57;100.00;100609.66;4904144;29;20225;-75
2023/03/17 07:31:59;;;;;;;2.90;2.20;;;;;;;6.62;100.00;100598.09;4894636;29;20047;-74
2023/03/17 07:34:24;;;;;;;3.53;2.53;;;;;;;6.69;100.00;100609.25;4909455;29;20071;-75
2023/03/17 07:36:51;;;;;;;6.05;3.00;;;;;;;6.76;100.00;100609.94;4913066;29;20569;-75
2023/03/17 07:39:16;;;;;;;4.85;2.90;;;;;;;6.81;100.00;100615.88;4909126;29;20047;-75
2023/03/17 07:41:51;;;;;;;4.60;2.47;;;;;;;6.90;100.00;100623.50;4909616;29;20165;-74
2023/03/17 07:44:18;;;;;;;4.13;2.67;;;;;;;7.00;100.00;100613.50;4905582;29;20062;-75
2023/03/17 07:46:45;;;;;;;4.90;2.80;;;;;;;7.07;100.00;100608.88;4912506;29;20055;-74
2023/03/17 07:49:11;;;;;;;6.53;2.85;;;;;;;7.13;100.00;100613.09;4928960;28;20071;-75
2023/03/17 07:51:37;;;;;;;5.13;2.75;;;;;;;7.20;100.00;100611.97;4895716;29;20089;-75
2023/03/17 07:54:04;;;;;;;4.47;2.75;;;;;;;7.26;100.00;100597.72;4909806;29;20691;-75
2023/03/17 07:56:31;;;;;;;3.78;2.38;;;;;;;7.32;100.00;100584.34;4912647;29;20032;-75
2023/03/17 07:58:57;;;;;;;3.20;2.33;;;;;;;7.37;100.00;100584.16;4909452;29;20057;-74
2023/03/17 08:01:25;;;;;;;3.80;2.22;;;;;;;7.41;100.00;100601.59;4881043;29;20529;-74
2023/03/17 08:03:51;;;;;;;3.42;2.25;;;;;;;7.47;100.00;100611.91;4906789;29;20693;-75
2023/03/17 08:06:17;;;;;;;5.13;2.70;;;;;;;7.52;100.00;100615.19;4894414;29;20050;-75
2023/03/17 08:08:45;;;;;;;5.07;2.60;;;;;;;7.59;100.00;100636.94;4912918;29;20083;-75
2023/03/17 08:11:11;;;;;;;3.65;2.13;;;;;;;7.66;100.00;100625.25;4910898;28;20051;-75
2023/03/17 08:13:37;;;;;;;4.53;2.20;;;;;;;7.72;100.00;100627.66;4904591;28;20119;-75
2023/03/17 08:16:02;;;;;;;2.78;2.20;;;;;;;7.79;100.00;100627.44;4909023;28;20051;-74
2023/03/17 08:18:28;;;;;;;2.53;2.13;;;;;;;7.83;100.00;100629.03;4911457;29;20396;-74
2023/03/17 08:20:54;;;;;;;3.10;2.13;;;;;;;7.89;100.00;100639.34;4912753;29;20046;-76
2023/03/17 08:23:20;;;;;;;3.15;2.10;;;;;;;7.95;100.00;100647.03;4912975;29;20051;-75
2023/03/17 08:25:46;;;;;;;4.22;2.20;;;;;;;8.01;100.00;100646.78;4913338;29;20663;-75
2023/03/17 08:28:14;;;;;;;4.40;2.63;;;;;;;8.08;100.00;100634.25;4911394;29;20127;-75
2023/03/17 08:30:43;;;;;;;4.90;2.35;;;;;;;8.17;100.00;100648.84;4912799;29;20059;-75
2023/03/17 08:33:09;;;;;;;4.10;2.70;;;;;;;8.25;100.00;100640.63;4914070;29;20054;-75
2023/03/17 08:35:36;;;;;;;3.88;2.47;;;;;;;8.37;100.00;100644.56;4910905;29;20048;-75
2023/03/17 08:38:02;;;;;;;3.40;2.45;;;;;;;8.52;100.00;100651.06;4915438;29;20126;-75
2023/03/17 08:40:28;;;;;;;2.67;2.20;;;;;;;8.68;100.00;100643.38;4896888;29;20044;-75
2023/03/17 08:42:54;;;;;;;3.78;2.50;;;;;;;8.82;100.00;100641.03;4906964;28;20106;-76
2023/03/17 08:45:20;;;;;;;3.28;2.13;;;;;;;8.95;100.00;100646.66;4915023;29;20051;-74
2023/03/17 08:47:46;;;;;;;4.78;2.45;;;;;;;9.13;100.00;100638.88;4915478;29;20043;-74
2023/03/17 08:50:23;;;;;;;4.00;2.17;;;;;;;9.29;100.00;100632.94;4914507;29;20091;-75
2023/03/17 08:52:50;;;;;;;4.03;2.50;;;;;;;9.43;100.00;100635.84;4906829;29;20051;-75
2023/03/17 08:55:17;;;;;;;3.30;2.17;;;;;;;9.59;100.00;100629.88;4912333;29;20114;-75
2023/03/17 08:57:43;;;;;;;3.60;2.20;;;;;;;9.74;100.00;100625.66;4901014;29;20118;-75
2023/03/17 09:00:14;;;;;;;2.70;2.22;;;;;;;9.94;100.00;100632.72;4915617;29;20085;-75
2023/03/17 09:02:44;;;;;;;2.85;2.20;;;;;;;10.05;100.00;100641.00;4912937;29;20049;-75
2023/03/17 09:05:12;;;;;;;3.85;2.30;;;;;;;10.14;100.00;100645.00;4915848;29;20508;-75
2023/03/17 09:07:39;;;;;;;3.67;1.88;;;;;;;10.24;100.00;100639.28;4901594;29;20039;-76
2023/03/17 09:10:06;;;;;;;4.85;2.70;;;;;;;10.32;100.00;100630.06;4899281;29;20052;-77
2023/03/17 09:12:32;;;;;;;3.50;2.45;;;;;;;10.41;100.00;100634.03;4898902;29;20154;-75
2023/03/17 09:14:58;;;;;;;3.15;2.55;;;;;;;10.52;100.00;100630.06;4919049;29;20067;-76
2023/03/17 09:17:24;;;;;;;3.22;2.33;;;;;;;10.62;100.00;100623.34;4931789;28;20043;-75
2023/03/17 09:19:49;;;;;;;3.08;2.45;;;;;;;10.73;100.00;100628.13;4914338;29;20080;-76
2023/03/17 09:22:17;;;;;;;3.92;2.50;;;;;;;10.87;100.00;100627.44;4915671;29;20047;-76
2023/03/17 09:24:43;;;;;;;3.15;2.47;;;;;;;11.03;100.00;100613.41;4911921;28;20046;-76
2023/03/17 09:27:09;;;;;;;3.78;2.60;;;;;;;11.12;100.00;100612.97;4905366;28;20090;-76
2023/03/17 09:29:35;;;;;;;4.10;2.45;;;;;;;11.17;100.00;100621.50;4911519;28;20478;-76
2023/03/17 09:32:01;;;;;;;3.75;2.50;;;;;;;11.21;100.00;100624.84;4923891;28;20165;-76
2023/03/17 09:34:26;;;;;;;3.25;2.20;;;;;;;11.24;100.00;100632.66;4881507;29;20086;-76
2023/03/17 09:36:52;;;;;;;4.38;2.70;;;;;;;11.25;100.00;100640.53;4905829;29;20055;-75
2023/03/17 09:39:21;;;;;;;3.72;2.63;;;;;;;11.28;100.00;100629.78;4890868;29;20677;-74
2023/03/17 09:41:52;;;;;;;5.32;2.60;;;;;;;11.34;100.00;100620.63;4912774;28;20055;-75
2023/03/17 09:44:25;;;;;;;4.07;2.58;;;;;;;11.42;100.00;100625.53;4892366;29;20965;-75
2023/03/17 09:47:05;;;;;;;5.68;3.10;;;;;;;11.49;99.99;100626.09;4897280;29;20039;-75
2023/03/17 09:49:47;;;;;;;4.63;2.67;;;;;;;11.52;100.00;100621.47;4911083;28;20741;-75
2023/03/17 09:52:15;;;;;;;3.42;2.50;;;;;;;11.54;100.00;100613.44;4913012;28;20692;-75
2023/03/17 09:54:41;;;;;;;4.40;2.70;;;;;;;11.55;99.83;100613.34;4896285;29;20403;-75
2023/03/17 09:57:39;;;;;;;5.03;2.95;;;;;;;11.55;96.73;100605.41;4896633;29;20050;-75
2023/03/17 10:00:13;;;;;;;3.72;2.50;;;;;;;11.55;97.56;100608.06;4912168;29;20044;-75
2023/03/17 10:02:40;;;;;;;3.80;2.90;;;;;;;11.60;99.66;100617.56;4891701;29;20539;-75
2023/03/17 10:05:15;;;;;;;5.00;2.85;;;;;;;11.67;99.61;100608.34;4905496;28;20039;-74
2023/03/17 10:07:52;;;;;;;4.18;2.40;;;;;;;11.74;99.70;100617.69;4911700;29;20487;-74
2023/03/17 10:10:26;;;;;;;4.93;2.58;;;;;;;11.82;98.85;100631.38;4910746;29;20871;-75
2023/03/17 10:13:23;;;;;;;4.85;2.83;;;;;;;11.87;97.51;100635.59;4914267;29;20150;-75
2023/03/17 10:16:07;;;;;;;4.47;2.65;;;;;;;11.88;97.38;100639.94;4916821;29;20055;-75
2023/03/17 10:18:43;;;;;;;4.10;2.85;;;;;;;11.91;96.71;100648.59;4916876;29;20047;-75
2023/03/17 10:21:10;;;;;;;6.30;2.72;;;;;;;11.94;98.71;100650.22;4898385;29;20130;-75
2023/03/17 10:23:36;;;;;;;5.32;2.97;;;;;;;11.98;98.32;100661.53;4907895;29;20531;-75
2023/03/17 10:26:16;;;;;;;5.70;2.85;;;;;;;12.01;99.85;100670.19;4911441;28;20059;-75
2023/03/17 10:28:42;;;;;;;6.57;3.00;;;;;;;12.11;99.52;100672.34;4907539;29;20484;-75
2023/03/17 10:31:15;;;;;;;4.72;2.90;;;;;;;12.15;94.32;100672.09;4911474;29;20170;-75
2023/03/17 10:33:42;;;;;;;4.57;2.83;;;;;;;12.16;97.09;100671.16;4897416;29;20063;-75
2023/03/17 10:36:09;;;;;;;5.10;3.17;;;;;;;12.17;95.21;100669.38;4899074;29;20059;-75
2023/03/17 10:38:35;;;;;;;5.57;3.22;;;;;;;12.22;94.77;100668.16;4896077;29;20380;-75
2023/03/17 10:41:12;;;;;;;4.90;2.70;;;;;;;12.29;93.53;100666.03;4914344;28;20052;-75
2023/03/17 10:43:44;;;;;;;6.18;3.28;;;;;;;12.33;95.33;100654.28;4896382;29;20067;-75
2023/03/17 10:46:18;;;;;;;5.15;3.20;;;;;;;12.35;88.16;100652.44;4915037;29;20192;-75
2023/03/17 10:48:51;;;;;;;8.70;3.67;;;;;;;12.38;90.26;100655.84;4911747;28;20047;-76
2023/03/17 10:51:21;;;;;;;5.72;3.47;;;;;;;12.36;90.75;100672.72;4897884;29;20077;-76
2023/03/17 10:53:51;;;;;;;8.38;3.55;;;;;;;12.43;90.77;100683.00;4899150;28;20073;-76
2023/03/17 10:56:23;;;;;;;6.82;3.42;;;;;;;12.43;83.92;100690.97;4914452;29;20118;-76
2023/03/17 10:58:51;;;;;;;4.82;3.58;;;;;;;12.44;87.97;100703.28;4929593;28;20044;-75
2023/03/17 11:01:26;;;;;;;3.80;2.78;;;;;;;12.43;90.37;100696.25;4917334;29;20043;-76
2023/03/17 11:03:52;;;;;;;4.43;3.38;;;;;;;12.42;93.11;100702.53;4914013;28;20051;-75
2023/03/17 11:06:20;;;;;;;5.95;3.53;;;;;;;12.44;91.19;100708.59;4912467;29;20048;-75
2023/03/17 11:08:52;;;;;;;6.80;3.60;;;;;;;12.46;92.12;100704.03;4882380;29;20068;-76
2023/03/17 11:11:29;;;;;;;4.90;3.53;;;;;;;12.44;89.48;100712.13;4913554;29;20326;-75
2023/03/17 11:14:02;;;;;;;4.13;3.25;;;;;;;12.44;91.49;100704.16;4912790;29;20392;-75
2023/03/17 11:16:31;;;;;;;5.38;3.40;;;;;;;12.44;93.08;100713.91;4916706;29;20721;-76
2023/03/17 11:18:57;;;;;;;5.80;3.45;;;;;;;12.50;88.79;100718.88;4909398;28;20103;-76
2023/03/17 11:21:29;;;;;;;5.68;3.58;;;;;;;12.53;89.91;100718.69;4914341;29;20047;-76
2023/03/17 11:24:13;;;;;;;3.97;3.08;;;;;;;12.55;89.24;100730.09;4897339;29;20527;-76
2023/03/17 11:26:54;;;;;;;5.00;3.45;;;;;;;12.59;90.52;100728.13;4867204;28;20176;-75